Terminal Aerodrome Forecast
Issued by NWS Sioux Falls, SD

Home | Current Version | Previous Version | Graphics & Text | Print | Product List | Glossary Off
Versions: 1 2 3 4 5 6 7 8 9 10 11 12 13

000
FTUS43 KFSD 291720
TAFHON
TAF
KHON 291720Z 2918/3018 29020G30KT P6SM SKC
     FM292100 29016G25KT P6SM SKC
     FM300100 25004KT P6SM SKC
     FM301500 29006KT P6SM SKC=

USA.gov is the U.S. government's official web portal to all federal, state and local government web resources and services.